createdAt,value
2019-01-08T00:00:27.428Z,77.22
2019-01-08T00:01:49.178Z,75.70
2019-01-08T00:02:27.406Z,75.23
2019-01-08T00:03:27.393Z,75.42
2019-01-08T00:04:27.388Z,75.99
2019-01-08T00:05:27.404Z,76.84
2019-01-08T00:06:27.368Z,77.70
2019-01-08T00:07:48.375Z,79.60
2019-01-08T00:08:27.359Z,80.45
2019-01-08T00:09:27.364Z,83.87
2019-01-08T00:10:27.336Z,82.54
2019-01-08T00:11:27.332Z,82.45
2019-01-08T00:12:27.318Z,80.35
2019-01-08T00:13:48.331Z,80.07
2019-01-08T00:14:27.297Z,81.30
2019-01-08T00:15:27.292Z,81.87
2019-01-08T00:16:27.282Z,82.35
2019-01-08T00:17:27.280Z,81.87
2019-01-08T00:18:27.264Z,83.11
2019-01-08T00:19:48.271Z,84.25
2019-01-08T00:20:27.245Z,84.25
2019-01-08T00:21:27.439Z,83.01
2019-01-08T00:22:27.231Z,84.34
2019-01-08T00:23:27.275Z,84.06
2019-01-08T00:24:27.284Z,83.78
2019-01-08T00:25:48.213Z,83.78
2019-01-08T00:26:27.225Z,83.11
2019-01-08T00:27:27.185Z,83.87
2019-01-08T00:28:27.243Z,84.82
2019-01-08T00:29:27.170Z,83.87
2019-01-08T00:30:27.163Z,85.58
2019-01-08T00:31:48.203Z,85.20
2019-01-08T00:32:27.141Z,84.34
2019-01-08T00:33:27.193Z,84.25
2019-01-08T00:34:27.125Z,83.49
2019-01-08T00:35:27.118Z,86.53
2019-01-08T00:36:27.107Z,85.96
2019-01-08T00:37:48.131Z,85.11
2019-01-08T00:38:27.091Z,86.63
2019-01-08T00:39:27.080Z,84.72
2019-01-08T00:40:27.142Z,86.05
2019-01-08T00:41:27.062Z,86.82
2019-01-08T00:42:27.056Z,85.86
2019-01-08T00:43:48.056Z,86.72
2019-01-08T00:44:27.039Z,87.67
2019-01-08T00:45:27.108Z,87.76
2019-01-08T00:46:27.041Z,88.62
2019-01-08T00:47:27.008Z,89.09
2019-01-08T00:48:27.002Z,89.19
2019-01-08T00:49:48.009Z,88.05
2019-01-08T00:50:26.989Z,87.86
2019-01-08T00:51:27.046Z,88.90
2019-01-08T00:52:27.908Z,86.53
2019-01-08T00:53:26.959Z,87.01
2019-01-08T00:54:26.950Z,86.63
2019-01-08T00:55:47.950Z,87.29
2019-01-08T00:56:26.931Z,85.49
2019-01-08T00:57:26.925Z,85.58
2019-01-08T00:58:26.923Z,84.58
2019-01-08T00:59:26.909Z,84.91
2019-01-08T01:00:26.917Z,85.49
2019-01-08T01:01:47.999Z,86.34
2019-01-08T01:02:26.888Z,86.24
2019-01-08T01:03:26.873Z,87.10
2019-01-08T01:04:26.868Z,87.10
2019-01-08T01:05:26.857Z,88.05
2019-01-08T01:06:26.850Z,89.38
2019-01-08T01:07:47.846Z,90.52
2019-01-08T01:08:26.830Z,89.09
2019-01-08T01:09:26.822Z,90.75
2019-01-08T01:10:26.817Z,91.71
2019-01-08T01:11:26.804Z,91.89
2019-01-08T01:12:26.798Z,91.33
2019-01-08T01:13:47.792Z,91.94
2019-01-08T01:14:26.779Z,92.90
2019-01-08T01:15:26.774Z,92.75
2019-01-08T01:16:26.763Z,92.66
2019-01-08T01:17:26.836Z,92.56
2019-01-08T01:18:26.875Z,92.56
2019-01-08T01:19:49.366Z,93.41
2019-01-08T01:20:27.752Z,94.46
2019-01-08T01:21:26.789Z,94.74
2019-01-08T01:22:26.827Z,94.46
2019-01-08T01:23:26.705Z,95.70
2019-01-08T01:24:26.701Z,94.27
2019-01-08T01:25:47.696Z,94.46
2019-01-08T01:26:26.689Z,95.22
2019-01-08T01:27:26.693Z,95.98
2019-01-08T01:28:26.680Z,95.12
2019-01-08T01:29:26.667Z,95.89
2019-01-08T01:30:26.655Z,94.46
2019-01-08T01:31:47.697Z,94.74
2019-01-08T01:32:26.631Z,94.37
2019-01-08T01:33:26.631Z,94.27
2019-01-08T01:34:26.616Z,93.60
2019-01-08T01:35:26.605Z,93.89
2019-01-08T01:36:26.596Z,93.51
2019-01-08T01:37:47.659Z,92.85
2019-01-08T01:38:26.623Z,93.23
2019-01-08T01:39:26.562Z,93.32
2019-01-08T01:40:26.564Z,92.08
2019-01-08T01:41:26.553Z,91.89
2019-01-08T01:42:26.553Z,90.19
2019-01-08T01:43:47.546Z,88.85
2019-01-08T01:44:26.529Z,89.42
2019-01-08T01:45:26.512Z,88.85
2019-01-08T01:46:26.505Z,88.57
2019-01-08T01:47:26.493Z,87.34
2019-01-08T01:48:26.591Z,87.14
2019-01-08T01:49:47.477Z,87.43
2019-01-08T01:50:26.466Z,87.05
2019-01-08T01:51:26.539Z,87.05
2019-01-08T01:52:26.461Z,86.95
2019-01-08T01:53:26.699Z,87.24
2019-01-08T01:54:26.439Z,88.09
2019-01-08T01:55:47.437Z,88.09
2019-01-08T01:56:26.421Z,86.86
2019-01-08T01:57:26.436Z,86.29
2019-01-08T01:58:26.401Z,86.29
2019-01-08T01:59:27.476Z,88.00
2019-01-08T02:00:26.375Z,88.85
2019-01-08T02:01:47.489Z,89.23
2019-01-08T02:02:26.366Z,88.00
2019-01-08T02:03:26.360Z,88.09
2019-01-08T02:04:26.363Z,88.28
2019-01-08T02:05:26.343Z,88.85
2019-01-08T02:06:26.333Z,88.67
2019-01-08T02:07:47.335Z,89.14
2019-01-08T02:08:26.316Z,91.42
2019-01-08T02:09:26.306Z,90.47
2019-01-08T02:10:26.305Z,91.04
2019-01-08T02:11:26.291Z,91.23
2019-01-08T02:12:26.280Z,90.75
2019-01-08T02:13:47.281Z,92.85
2019-01-08T02:14:26.267Z,92.75
2019-01-08T02:15:26.256Z,91.80
2019-01-08T02:16:26.246Z,92.56
2019-01-08T02:17:26.237Z,91.71
2019-01-08T02:18:26.232Z,92.56
2019-01-08T02:19:47.229Z,91.99
2019-01-08T02:20:26.214Z,92.66
2019-01-08T02:21:26.210Z,91.80
2019-01-08T02:22:26.201Z,92.75
2019-01-08T02:23:26.190Z,91.80
2019-01-08T02:24:27.142Z,90.66
2019-01-08T02:25:47.186Z,90.56
2019-01-08T02:26:26.169Z,89.90
2019-01-08T02:27:26.156Z,90.66
2019-01-08T02:28:26.156Z,91.33
2019-01-08T02:29:26.214Z,91.61
2019-01-08T02:30:26.131Z,90.75
2019-01-08T02:31:47.188Z,90.00
2019-01-08T02:32:26.113Z,91.04
2019-01-08T02:33:26.185Z,92.46
2019-01-08T02:34:26.105Z,92.85
2019-01-08T02:35:26.088Z,92.18
2019-01-08T02:36:26.078Z,92.94
2019-01-08T02:37:47.079Z,95.12
2019-01-08T02:38:26.065Z,94.93
2019-01-08T02:39:26.058Z,94.56
2019-01-08T02:40:26.046Z,94.46
2019-01-08T02:41:26.082Z,93.51
2019-01-08T02:42:26.027Z,94.56
2019-01-08T02:43:47.027Z,94.93
2019-01-08T02:44:26.082Z,94.93
2019-01-08T02:45:26.001Z,95.41
2019-01-08T02:46:26.033Z,97.03
2019-01-08T02:47:25.985Z,96.08
2019-01-08T02:48:25.978Z,96.26
2019-01-08T02:49:46.986Z,96.08
2019-01-08T02:50:25.964Z,95.98
2019-01-08T02:51:25.950Z,95.89
2019-01-08T02:52:25.942Z,95.32
2019-01-08T02:53:25.932Z,96.36
2019-01-08T02:54:26.077Z,96.36
2019-01-08T02:55:46.919Z,95.70
2019-01-08T02:56:25.909Z,96.08
2019-01-08T02:57:25.901Z,95.89
2019-01-08T02:58:25.889Z,96.17
2019-01-08T02:59:25.882Z,96.08
2019-01-08T03:00:25.874Z,96.17
2019-01-08T03:01:46.981Z,96.08
2019-01-08T03:02:25.857Z,96.36
2019-01-08T03:03:25.856Z,97.78
2019-01-08T03:04:25.866Z,96.65
2019-01-08T03:05:25.829Z,97.22
2019-01-08T03:06:25.825Z,96.74
2019-01-08T03:07:46.828Z,96.08
2019-01-08T03:08:25.815Z,97.22
2019-01-08T03:09:25.799Z,96.08
2019-01-08T03:10:25.787Z,96.26
2019-01-08T03:11:25.778Z,97.12
2019-01-08T03:12:25.838Z,96.45
2019-01-08T03:13:46.780Z,96.08
2019-01-08T03:14:25.785Z,97.03
2019-01-08T03:15:25.745Z,97.97
2019-01-08T03:16:25.737Z,97.22
2019-01-08T03:17:25.728Z,97.31
2019-01-08T03:18:25.719Z,97.22
2019-01-08T03:19:46.717Z,97.97
2019-01-08T03:20:25.702Z,97.78
2019-01-08T03:21:25.709Z,97.60
2019-01-08T03:22:25.686Z,97.78
2019-01-08T03:23:25.695Z,97.12
2019-01-08T03:24:25.669Z,97.22
2019-01-08T03:25:46.664Z,97.12
2019-01-08T03:26:25.655Z,96.36
2019-01-08T03:27:25.642Z,96.93
2019-01-08T03:28:25.636Z,95.70
2019-01-08T03:29:33.305Z,96.08
2019-01-08T03:30:25.627Z,95.60
2019-01-08T03:31:46.677Z,94.74
2019-01-08T03:32:25.611Z,95.12
2019-01-08T03:33:25.606Z,93.89
2019-01-08T03:34:25.589Z,95.03
2019-01-08T03:35:25.576Z,95.32
2019-01-08T03:36:25.573Z,94.37
2019-01-08T03:37:46.565Z,93.60
2019-01-08T03:38:25.552Z,93.51
2019-01-08T03:39:25.543Z,92.94
2019-01-08T03:40:25.549Z,92.27
2019-01-08T03:41:25.530Z,92.75
2019-01-08T03:42:25.529Z,93.55
2019-01-08T03:43:46.518Z,92.22
2019-01-08T03:44:25.505Z,93.46
2019-01-08T03:45:25.493Z,94.56
2019-01-08T03:46:25.486Z,93.51
2019-01-08T03:47:25.475Z,93.04
2019-01-08T03:48:25.479Z,92.75
2019-01-08T03:49:46.468Z,92.94
2019-01-08T03:50:25.455Z,93.51
2019-01-08T03:51:25.508Z,93.89
2019-01-08T03:52:25.433Z,93.60
2019-01-08T03:53:25.430Z,92.66
2019-01-08T03:54:25.427Z,92.46
2019-01-08T03:55:46.422Z,92.18
2019-01-08T03:56:26.345Z,90.85
2019-01-08T03:57:25.395Z,90.56
2019-01-08T03:58:25.387Z,90.85
2019-01-08T03:59:25.393Z,89.61
2019-01-08T04:00:25.375Z,89.04
2019-01-08T04:01:46.463Z,88.76
2019-01-08T04:02:25.352Z,88.95
2019-01-08T04:03:25.348Z,88.76
2019-01-08T04:04:25.347Z,87.90
2019-01-08T04:05:25.327Z,88.85
2019-01-08T04:06:25.320Z,88.47
2019-01-08T04:07:46.319Z,88.76
2019-01-08T04:08:25.304Z,87.81
2019-01-08T04:09:25.300Z,88.00
2019-01-08T04:10:25.287Z,88.00
2019-01-08T04:11:25.275Z,88.09
2019-01-08T04:12:25.279Z,87.05
2019-01-08T04:13:46.269Z,86.38
2019-01-08T04:14:25.335Z,86.47
2019-01-08T04:15:25.248Z,85.72
2019-01-08T04:16:25.238Z,87.34
2019-01-08T04:17:25.235Z,87.81
2019-01-08T04:18:39.887Z,87.24
2019-01-08T04:19:46.215Z,87.24
2019-01-08T04:20:25.204Z,85.91
2019-01-08T04:21:25.201Z,88.28
2019-01-08T04:22:25.188Z,87.14
2019-01-08T04:23:25.200Z,87.14
2019-01-08T04:24:25.176Z,87.05
2019-01-08T04:25:46.166Z,86.19
2019-01-08T04:26:25.155Z,85.72
2019-01-08T04:27:25.148Z,85.91
2019-01-08T04:28:25.160Z,85.24
2019-01-08T04:29:25.129Z,85.72
2019-01-08T04:30:25.120Z,84.10
2019-01-08T04:31:46.151Z,85.24
2019-01-08T04:32:25.100Z,85.24
2019-01-08T04:33:25.095Z,86.00
2019-01-08T04:34:25.089Z,85.53
2019-01-08T04:35:25.079Z,85.15
2019-01-08T04:36:25.073Z,84.86
2019-01-08T04:37:46.857Z,84.86
2019-01-08T04:38:25.061Z,85.62
2019-01-08T04:39:25.118Z,85.24
2019-01-08T04:40:25.045Z,85.24
2019-01-08T04:41:25.040Z,85.81
2019-01-08T04:42:25.019Z,85.72
2019-01-08T04:43:46.016Z,85.72
2019-01-08T04:44:25.055Z,85.24
2019-01-08T04:45:24.999Z,85.62
2019-01-08T04:46:24.989Z,85.15
2019-01-08T04:47:24.984Z,84.77
2019-01-08T04:48:24.985Z,85.05
2019-01-08T04:49:45.972Z,85.81
2019-01-08T04:50:24.954Z,86.10
2019-01-08T04:51:24.946Z,85.34
2019-01-08T04:52:24.941Z,84.77
2019-01-08T04:53:24.931Z,84.20
2019-01-08T04:54:24.971Z,84.67
2019-01-08T04:55:45.919Z,85.34
2019-01-08T04:56:24.905Z,85.15
2019-01-08T04:57:25.084Z,85.24
2019-01-08T04:58:24.888Z,85.24
2019-01-08T04:59:24.875Z,84.29
2019-01-08T05:00:24.871Z,85.24
2019-01-08T05:01:45.950Z,85.15
2019-01-08T05:02:24.853Z,85.05
2019-01-08T05:03:24.850Z,84.39
2019-01-08T05:04:24.840Z,84.58
2019-01-08T05:05:24.832Z,83.82
2019-01-08T05:06:24.818Z,83.72
2019-01-08T05:07:45.818Z,84.77
2019-01-08T05:08:24.809Z,84.10
2019-01-08T05:09:24.803Z,84.10
2019-01-08T05:10:24.781Z,83.91
2019-01-08T05:11:24.782Z,85.15
2019-01-08T05:12:24.772Z,85.34
2019-01-08T05:13:45.764Z,84.77
2019-01-08T05:14:24.753Z,84.29
2019-01-08T05:15:24.739Z,84.86
2019-01-08T05:16:24.736Z,84.39
2019-01-08T05:17:24.725Z,85.05
2019-01-08T05:18:24.729Z,84.39
2019-01-08T05:19:45.714Z,85.05
2019-01-08T05:20:24.703Z,84.01
2019-01-08T05:21:24.687Z,84.20
2019-01-08T05:22:24.683Z,85.15
2019-01-08T05:23:24.678Z,85.15
2019-01-08T05:24:24.666Z,85.24
2019-01-08T05:25:45.661Z,84.01
2019-01-08T05:26:24.650Z,85.72
2019-01-08T05:27:24.643Z,84.95
2019-01-08T05:28:25.486Z,85.53
2019-01-08T05:29:24.620Z,86.10
2019-01-08T05:30:24.614Z,85.62
2019-01-08T05:31:45.648Z,85.81
2019-01-08T05:32:24.609Z,86.38
2019-01-08T05:33:24.593Z,87.05
2019-01-08T05:34:24.578Z,86.57
2019-01-08T05:35:24.570Z,87.81
2019-01-08T05:36:24.562Z,86.86
2019-01-08T05:37:45.559Z,87.81
2019-01-08T05:38:24.546Z,88.09
2019-01-08T05:39:24.541Z,89.04
2019-01-08T05:40:24.527Z,89.14
2019-01-08T05:41:24.520Z,89.04
2019-01-08T05:42:24.517Z,89.90
2019-01-08T05:43:45.507Z,90.09
2019-01-08T05:44:24.501Z,90.56
2019-01-08T05:45:24.485Z,90.09
2019-01-08T05:46:24.480Z,89.42
2019-01-08T05:47:24.465Z,90.00
2019-01-08T05:48:24.467Z,90.28
2019-01-08T05:49:45.476Z,90.66
2019-01-08T05:50:24.445Z,91.42
2019-01-08T05:51:24.482Z,90.85
2019-01-08T05:52:24.422Z,90.47
2019-01-08T05:53:24.416Z,90.09
2019-01-08T05:54:24.414Z,92.66
2019-01-08T05:55:45.415Z,90.28
2019-01-08T05:56:24.389Z,90.37
2019-01-08T05:57:24.383Z,91.52
2019-01-08T05:58:24.384Z,91.23
2019-01-08T05:59:24.366Z,91.04
2019-01-08T06:00:24.360Z,91.71
2019-01-08T06:01:45.437Z,92.18
2019-01-08T06:02:24.345Z,92.56
2019-01-08T06:03:24.349Z,91.61
2019-01-08T06:04:24.342Z,91.89
2019-01-08T06:05:24.323Z,92.66
2019-01-08T06:06:24.311Z,91.89
2019-01-08T06:07:45.302Z,92.75
2019-01-08T06:08:24.286Z,92.56
2019-01-08T06:09:24.292Z,92.66
2019-01-08T06:10:24.276Z,93.04
2019-01-08T06:11:24.266Z,93.13
2019-01-08T06:12:24.260Z,92.56
2019-01-08T06:13:45.254Z,91.71
2019-01-08T06:14:24.243Z,92.70
2019-01-08T06:15:24.230Z,93.13
2019-01-08T06:16:24.231Z,94.46
2019-01-08T06:17:24.214Z,94.08
2019-01-08T06:18:24.213Z,94.56
2019-01-08T06:19:45.207Z,95.79
2019-01-08T06:20:24.198Z,95.03
2019-01-08T06:21:24.181Z,95.41
2019-01-08T06:22:24.179Z,94.93
2019-01-08T06:23:24.163Z,95.41
2019-01-08T06:24:24.160Z,96.17
2019-01-08T06:25:45.156Z,96.60
2019-01-08T06:26:24.141Z,96.36
2019-01-08T06:27:24.146Z,96.26
2019-01-08T06:28:24.124Z,96.45
2019-01-08T06:29:24.247Z,96.36
2019-01-08T06:30:24.829Z,95.65
2019-01-08T06:31:45.134Z,95.89
2019-01-08T06:32:24.089Z,97.27
2019-01-08T06:33:24.086Z,96.45
2019-01-08T06:34:24.078Z,96.69
2019-01-08T06:35:24.069Z,97.08
2019-01-08T06:36:24.066Z,97.74
2019-01-08T06:37:45.071Z,98.60
2019-01-08T06:38:24.069Z,98.31
2019-01-08T06:39:24.032Z,99.07
2019-01-08T06:40:24.021Z,99.93
2019-01-08T06:41:24.034Z,99.45
2019-01-08T06:42:24.008Z,99.99
2019-01-08T06:43:45.009Z,99.99
2019-01-08T06:44:23.997Z,99.99
2019-01-08T06:45:23.984Z,99.99
2019-01-08T06:46:23.980Z,99.74
2019-01-08T06:47:23.983Z,99.99
2019-01-08T06:48:23.963Z,99.99
2019-01-08T06:49:44.962Z,99.99
2019-01-08T06:50:23.950Z,99.99
2019-01-08T06:51:23.938Z,99.99
2019-01-08T06:52:23.941Z,99.99
2019-01-08T06:53:23.921Z,99.99
2019-01-08T06:54:23.914Z,99.99
2019-01-08T06:55:44.921Z,99.99
2019-01-08T06:56:23.901Z,99.99
2019-01-08T06:57:23.935Z,99.99
2019-01-08T06:58:23.926Z,99.99
2019-01-08T06:59:23.873Z,99.99
2019-01-08T07:00:33.008Z,99.99
2019-01-08T07:01:44.922Z,99.99
2019-01-08T07:02:23.851Z,99.99
2019-01-08T07:03:23.842Z,99.99
2019-01-08T07:04:23.832Z,99.99
2019-01-08T07:05:23.823Z,99.99
2019-01-08T07:06:23.820Z,99.99
2019-01-08T07:07:44.859Z,99.99
2019-01-08T07:08:23.802Z,99.99
2019-01-08T07:09:23.793Z,99.99
2019-01-08T07:10:23.783Z,99.99
2019-01-08T07:11:23.779Z,99.99
2019-01-08T07:12:23.770Z,99.99
2019-01-08T07:13:44.767Z,99.99
2019-01-08T07:14:23.750Z,99.99
2019-01-08T07:15:23.744Z,99.99
2019-01-08T07:16:23.738Z,99.99
2019-01-08T07:17:23.729Z,99.99
2019-01-08T07:18:23.724Z,99.99
2019-01-08T07:19:44.718Z,99.99
2019-01-08T07:20:23.721Z,99.99
2019-01-08T07:21:23.763Z,99.99
2019-01-08T07:22:23.692Z,99.99
2019-01-08T07:23:23.680Z,99.26
2019-01-08T07:24:23.669Z,98.12
2019-01-08T07:25:44.684Z,97.45
2019-01-08T07:26:23.658Z,97.08
2019-01-08T07:27:23.663Z,96.41
2019-01-08T07:28:23.638Z,99.26
2019-01-08T07:29:23.635Z,98.97
2019-01-08T07:30:23.633Z,99.16
2019-01-08T07:31:44.719Z,99.99
2019-01-08T07:32:23.609Z,99.99
2019-01-08T07:33:23.602Z,99.99
2019-01-08T07:34:24.552Z,99.99
2019-01-08T07:35:23.583Z,99.99
2019-01-08T07:36:23.578Z,99.99
2019-01-08T07:37:44.579Z,99.99
2019-01-08T07:38:23.558Z,99.99
2019-01-08T07:39:23.551Z,99.99
2019-01-08T07:40:23.542Z,99.99
2019-01-08T07:41:23.542Z,99.99
2019-01-08T07:42:23.531Z,99.99
2019-01-08T07:43:44.527Z,99.99
2019-01-08T07:44:23.510Z,99.99
2019-01-08T07:45:23.501Z,99.99
2019-01-08T07:46:23.517Z,99.99
2019-01-08T07:47:23.486Z,99.99
2019-01-08T07:48:23.483Z,99.99
2019-01-08T07:49:44.494Z,99.99
2019-01-08T07:50:23.467Z,99.99
2019-01-08T07:51:23.453Z,99.99
2019-01-08T07:52:23.453Z,99.99
2019-01-08T07:53:23.435Z,99.99
2019-01-08T07:54:23.430Z,99.99
2019-01-08T07:55:44.429Z,99.99
2019-01-08T07:56:23.412Z,99.99
2019-01-08T07:57:23.406Z,99.99
2019-01-08T07:58:23.400Z,99.99
2019-01-08T07:59:23.391Z,99.99
2019-01-08T08:00:23.380Z,99.99
2019-01-08T08:01:44.555Z,99.99
2019-01-08T08:02:23.364Z,99.99
2019-01-08T08:03:23.370Z,99.99
2019-01-08T08:04:23.349Z,99.99
2019-01-08T08:05:23.339Z,99.99
2019-01-08T08:06:23.330Z,99.99
2019-01-08T08:07:44.330Z,99.99
2019-01-08T08:08:23.315Z,99.99
2019-01-08T08:09:23.307Z,99.07
2019-01-08T08:10:23.301Z,98.97
2019-01-08T08:11:23.294Z,96.31
2019-01-08T08:12:23.287Z,95.56
2019-01-08T08:13:44.287Z,96.03
2019-01-08T08:14:23.267Z,95.75
2019-01-08T08:15:23.261Z,95.46
2019-01-08T08:16:23.258Z,94.60
2019-01-08T08:17:23.245Z,93.84
2019-01-08T08:18:23.240Z,93.94
2019-01-08T08:19:44.235Z,93.75
2019-01-08T08:20:23.223Z,93.18
2019-01-08T08:21:23.247Z,90.89
2019-01-08T08:22:23.207Z,87.28
2019-01-08T08:23:23.195Z,89.18
2019-01-08T08:24:23.194Z,89.75
2019-01-08T08:25:44.184Z,89.66
2019-01-08T08:26:23.175Z,89.61
2019-01-08T08:27:23.167Z,89.47
2019-01-08T08:28:23.168Z,88.28
2019-01-08T08:29:23.185Z,85.81
2019-01-08T08:30:23.140Z,85.91
2019-01-08T08:31:44.212Z,88.67
2019-01-08T08:32:23.812Z,88.76
2019-01-08T08:33:23.116Z,88.38
2019-01-08T08:34:23.108Z,90.00
2019-01-08T08:35:23.097Z,89.18
2019-01-08T08:36:23.091Z,90.09
2019-01-08T08:37:44.085Z,90.33
2019-01-08T08:38:23.075Z,91.66
2019-01-08T08:39:23.063Z,91.08
2019-01-08T08:40:23.125Z,90.52
2019-01-08T08:41:23.045Z,92.32
2019-01-08T08:42:23.050Z,92.80
2019-01-08T08:43:44.040Z,93.65
2019-01-08T08:44:23.024Z,93.55
2019-01-08T08:45:23.018Z,93.18
2019-01-08T08:46:23.009Z,94.32
2019-01-08T08:47:23.007Z,95.46
2019-01-08T08:48:22.990Z,94.70
2019-01-08T08:49:44.001Z,96.22
2019-01-08T08:50:22.980Z,95.84
2019-01-08T08:51:22.968Z,96.17
2019-01-08T08:52:22.961Z,96.31
2019-01-08T08:53:22.955Z,95.56
2019-01-08T08:54:22.955Z,94.79
2019-01-08T08:55:43.944Z,95.08
2019-01-08T08:56:22.929Z,94.98
2019-01-08T08:57:22.921Z,95.08
2019-01-08T08:58:22.925Z,95.17
2019-01-08T08:59:22.921Z,93.84
2019-01-08T09:00:22.893Z,93.65
2019-01-08T09:01:44.096Z,93.18
2019-01-08T09:02:22.891Z,93.27
2019-01-08T09:03:22.880Z,92.70
2019-01-08T09:04:22.869Z,91.56
2019-01-08T09:05:22.860Z,93.27
2019-01-08T09:06:22.850Z,93.75
2019-01-08T09:07:43.846Z,93.75
2019-01-08T09:08:22.827Z,93.79
2019-01-08T09:09:22.822Z,92.99
2019-01-08T09:10:22.814Z,92.32
2019-01-08T09:11:22.813Z,91.94
2019-01-08T09:12:22.797Z,91.47
2019-01-08T09:13:44.349Z,89.90
2019-01-08T09:14:22.784Z,87.95
2019-01-08T09:15:22.773Z,87.19
2019-01-08T09:16:22.764Z,91.18
2019-01-08T09:17:22.758Z,91.04
2019-01-08T09:18:22.748Z,90.19
2019-01-08T09:19:43.754Z,90.28
2019-01-08T09:20:22.728Z,87.43
2019-01-08T09:21:22.724Z,88.85
2019-01-08T09:22:22.729Z,88.38
2019-01-08T09:23:22.709Z,86.57
2019-01-08T09:24:22.695Z,87.24
2019-01-08T09:25:43.696Z,88.19
2019-01-08T09:26:22.678Z,88.76
2019-01-08T09:27:23.002Z,91.08
2019-01-08T09:28:22.677Z,93.60
2019-01-08T09:29:22.656Z,90.94
2019-01-08T09:30:22.657Z,93.46
2019-01-08T09:31:43.706Z,92.03
2019-01-08T09:32:22.632Z,90.61
2019-01-08T09:33:22.631Z,91.66
2019-01-08T09:34:22.614Z,90.52
2019-01-08T09:35:22.602Z,89.85
2019-01-08T09:36:22.599Z,89.80
2019-01-08T09:37:43.667Z,90.66
2019-01-08T09:38:22.576Z,89.85
2019-01-08T09:39:22.589Z,89.56
2019-01-08T09:40:22.840Z,89.56
2019-01-08T09:41:22.556Z,89.94
2019-01-08T09:42:22.559Z,89.94
2019-01-08T09:43:43.541Z,91.66
2019-01-08T09:44:22.588Z,89.94
2019-01-08T09:45:22.754Z,90.42
2019-01-08T09:46:22.522Z,91.37
2019-01-08T09:47:22.510Z,92.41
2019-01-08T09:48:22.505Z,93.37
2019-01-08T09:49:43.523Z,97.64
2019-01-08T09:50:22.486Z,95.17
2019-01-08T09:51:22.470Z,95.56
2019-01-08T09:52:22.470Z,94.79
2019-01-08T09:53:22.461Z,95.56
2019-01-08T09:54:22.451Z,95.46
2019-01-08T09:55:43.460Z,94.51
2019-01-08T09:56:22.434Z,96.89
2019-01-08T09:57:22.428Z,96.12
2019-01-08T09:58:22.424Z,96.12
2019-01-08T09:59:22.410Z,95.84
2019-01-08T10:00:22.409Z,96.50
2019-01-08T10:01:43.493Z,97.27
2019-01-08T10:02:22.560Z,96.22
2019-01-08T10:03:22.381Z,96.50
2019-01-08T10:04:23.013Z,98.22
2019-01-08T10:05:23.649Z,98.97
2019-01-08T10:06:22.349Z,96.03
2019-01-08T10:07:43.354Z,98.69
2019-01-08T10:08:22.341Z,96.98
2019-01-08T10:09:22.332Z,97.45
2019-01-08T10:10:22.319Z,97.83
2019-01-08T10:11:22.316Z,98.60
2019-01-08T10:12:22.304Z,99.84
2019-01-08T10:13:43.303Z,99.84
2019-01-08T10:14:22.290Z,99.99
2019-01-08T10:15:22.311Z,99.45
2019-01-08T10:16:22.271Z,99.36
2019-01-08T10:17:22.264Z,99.99
2019-01-08T10:18:22.490Z,99.99
2019-01-08T10:19:43.256Z,99.99
2019-01-08T10:20:22.244Z,99.99
2019-01-08T10:21:24.289Z,99.93
2019-01-08T10:22:22.240Z,99.99
2019-01-08T10:23:22.221Z,99.99
2019-01-08T10:24:22.217Z,99.99
2019-01-08T10:25:43.210Z,99.99
2019-01-08T10:26:22.199Z,99.99
2019-01-08T10:27:22.211Z,99.99
2019-01-08T10:28:22.179Z,99.99
2019-01-08T10:29:22.286Z,99.99
2019-01-08T10:30:22.162Z,99.99
2019-01-08T10:31:43.375Z,99.99
2019-01-08T10:32:22.155Z,99.99
2019-01-08T10:33:22.138Z,99.99
2019-01-08T10:34:22.139Z,99.99
2019-01-08T10:35:22.125Z,99.99
2019-01-08T10:36:22.125Z,99.99
2019-01-08T10:37:43.121Z,99.99
2019-01-08T10:38:22.099Z,99.99
2019-01-08T10:39:22.096Z,99.99
2019-01-08T10:40:22.086Z,99.99
2019-01-08T10:41:22.084Z,99.99
2019-01-08T10:42:22.067Z,99.99
2019-01-08T10:43:43.069Z,99.99
2019-01-08T10:44:22.055Z,99.99
2019-01-08T10:45:22.052Z,99.99
2019-01-08T10:46:22.059Z,99.99
2019-01-08T10:47:22.030Z,99.99
2019-01-08T10:48:22.064Z,99.99
2019-01-08T10:49:43.038Z,99.99
2019-01-08T10:50:22.013Z,99.99
2019-01-08T10:51:22.048Z,99.99
2019-01-08T10:52:23.942Z,99.99
2019-01-08T10:53:21.993Z,99.99
2019-01-08T10:54:22.004Z,99.99
2019-01-08T10:55:42.978Z,99.99
2019-01-08T10:56:21.985Z,99.99
2019-01-08T10:57:21.958Z,99.99
2019-01-08T10:58:21.957Z,99.99
2019-01-08T10:59:21.960Z,99.99
2019-01-08T11:00:21.933Z,99.99
2019-01-08T11:01:42.976Z,99.99
2019-01-08T11:02:21.924Z,99.99
2019-01-08T11:03:21.909Z,99.99
2019-01-08T11:04:21.901Z,99.99
2019-01-08T11:05:21.890Z,99.99
2019-01-08T11:06:21.887Z,99.99
2019-01-08T11:07:42.887Z,99.99
2019-01-08T11:08:21.870Z,99.99
2019-01-08T11:09:22.022Z,99.99
2019-01-08T11:10:21.859Z,99.99
2019-01-08T11:11:21.852Z,99.99
2019-01-08T11:12:21.846Z,99.99
2019-01-08T11:13:42.841Z,99.99
2019-01-08T11:14:21.829Z,99.99
2019-01-08T11:15:21.823Z,99.99
2019-01-08T11:16:21.812Z,99.99
2019-01-08T11:17:21.806Z,99.99
2019-01-08T11:18:21.803Z,99.99
2019-01-08T11:19:42.796Z,99.99
2019-01-08T11:20:21.786Z,99.99
2019-01-08T11:21:21.774Z,99.99
2019-01-08T11:22:21.767Z,99.99
2019-01-08T11:23:21.969Z,99.99
2019-01-08T11:24:21.750Z,99.99
2019-01-08T11:25:42.762Z,99.99
2019-01-08T11:26:21.750Z,99.99
2019-01-08T11:27:21.729Z,99.99
2019-01-08T11:28:21.725Z,99.99
2019-01-08T11:29:21.719Z,99.99
2019-01-08T11:30:21.724Z,99.99
2019-01-08T11:31:48.795Z,99.99
2019-01-08T11:32:21.697Z,98.08
2019-01-08T11:33:21.691Z,98.17
2019-01-08T11:34:21.686Z,96.65
2019-01-08T11:35:21.675Z,99.60
2019-01-08T11:36:22.167Z,96.17
2019-01-08T11:37:42.668Z,98.08
2019-01-08T11:38:21.658Z,96.17
2019-01-08T11:39:21.649Z,98.08
2019-01-08T11:40:21.643Z,96.55
2019-01-08T11:41:21.629Z,96.65
2019-01-08T11:42:21.630Z,94.18
2019-01-08T11:43:42.618Z,95.32
2019-01-08T11:44:21.609Z,94.65
2019-01-08T11:45:21.600Z,95.70
2019-01-08T11:46:21.594Z,90.75
2019-01-08T11:47:21.583Z,91.89
2019-01-08T11:48:21.586Z,89.23
2019-01-08T11:49:42.583Z,89.32
2019-01-08T11:50:21.640Z,87.71
2019-01-08T11:51:21.607Z,84.76
2019-01-08T11:52:21.573Z,88.09
2019-01-08T11:53:21.538Z,83.33
2019-01-08T11:54:21.565Z,84.56
2019-01-08T11:55:42.539Z,82.76
2019-01-08T11:56:21.522Z,86.76
2019-01-08T11:57:21.507Z,88.28
2019-01-08T11:58:21.499Z,86.57
2019-01-08T11:59:21.492Z,87.09
2019-01-08T12:00:23.441Z,85.90
2019-01-08T12:01:42.582Z,84.62
2019-01-08T12:02:21.471Z,83.00
2019-01-08T12:03:21.463Z,81.38
2019-01-08T12:04:21.453Z,82.15
2019-01-08T12:05:21.443Z,80.91
2019-01-08T12:06:21.436Z,83.19
2019-01-08T12:07:42.438Z,84.72
2019-01-08T12:08:21.427Z,79.96
2019-01-08T12:09:21.415Z,85.47
2019-01-08T12:10:21.424Z,84.81
2019-01-08T12:11:21.393Z,84.14
2019-01-08T12:12:21.413Z,85.86
2019-01-08T12:13:42.389Z,85.00
2019-01-08T12:14:21.372Z,85.66
2019-01-08T12:15:21.370Z,90.52
2019-01-08T12:16:21.363Z,88.42
2019-01-08T12:17:21.347Z,86.14
2019-01-08T12:18:21.342Z,87.19
2019-01-08T12:19:42.341Z,88.04
2019-01-08T12:20:21.336Z,86.99
2019-01-08T12:21:21.403Z,87.57
2019-01-08T12:22:21.313Z,87.57
2019-01-08T12:23:21.306Z,89.47
2019-01-08T12:24:21.297Z,86.43
2019-01-08T12:25:42.298Z,89.00
2019-01-08T12:26:21.283Z,89.56
2019-01-08T12:27:21.812Z,90.08
2019-01-08T12:28:21.354Z,91.08
2019-01-08T12:29:21.516Z,92.13
2019-01-08T12:30:21.301Z,92.94
2019-01-08T12:31:42.299Z,94.70
2019-01-08T12:32:21.272Z,93.18
2019-01-08T12:33:21.227Z,92.22
2019-01-08T12:34:21.264Z,93.04
2019-01-08T12:35:21.223Z,92.80
2019-01-08T12:36:21.224Z,89.56
2019-01-08T12:37:42.243Z,90.84
2019-01-08T12:38:21.188Z,95.98
2019-01-08T12:39:21.183Z,91.89
2019-01-08T12:40:21.178Z,91.51
2019-01-08T12:41:21.162Z,91.70
2019-01-08T12:42:21.160Z,90.28
2019-01-08T12:43:42.380Z,92.18
2019-01-08T12:44:21.134Z,94.37
2019-01-08T12:45:21.146Z,93.70
2019-01-08T12:46:21.309Z,93.60
2019-01-08T12:47:21.120Z,93.70
2019-01-08T12:48:21.120Z,95.41
2019-01-08T12:49:42.111Z,95.12
2019-01-08T12:50:21.271Z,95.12
2019-01-08T12:51:21.096Z,94.65
2019-01-08T12:52:21.408Z,96.46